createdAt,value
2019-02-26T00:01:35.328Z,55.80
2019-02-26T00:04:06.496Z,49.83
2019-02-26T00:06:42.437Z,67.13
2019-02-26T00:09:18.170Z,70.13
2019-02-26T00:11:48.076Z,67.97
2019-02-26T00:14:20.711Z,65.05
2019-02-26T00:16:54.491Z,56.60
2019-02-26T00:19:26.067Z,52.53
2019-02-26T00:21:58.196Z,57.10
2019-02-26T00:24:30.787Z,66.30
2019-02-26T00:27:03.796Z,57.87
2019-02-26T00:29:36.253Z,69.27
2019-02-26T00:32:10.091Z,75.50
2019-02-26T00:34:41.481Z,62.93
2019-02-26T00:37:55.707Z,43.43
2019-02-26T00:40:27.275Z,64.87
2019-02-26T00:43:00.175Z,70.70
2019-02-26T00:45:33.564Z,74.80
2019-02-26T00:48:04.611Z,74.72
2019-02-26T00:50:37.511Z,75.40
2019-02-26T00:53:10.731Z,73.72
2019-02-26T00:55:41.969Z,72.25
2019-02-26T00:58:13.276Z,67.78
2019-02-26T01:00:44.968Z,74.17
2019-02-26T01:03:16.791Z,75.45
2019-02-26T01:05:48.168Z,75.10
2019-02-26T01:08:19.911Z,68.33
2019-02-26T01:10:51.525Z,69.87
2019-02-26T01:13:25.630Z,68.60
2019-02-26T01:15:56.911Z,70.78
2019-02-26T01:18:29.097Z,64.77
2019-02-26T01:21:02.534Z,65.80
2019-02-26T01:23:34.225Z,66.17
2019-02-26T01:26:06.113Z,66.77
2019-02-26T01:28:39.555Z,68.83
2019-02-26T01:31:11.032Z,73.02
2019-02-26T01:33:42.284Z,65.47
2019-02-26T01:36:13.968Z,70.47
2019-02-26T01:38:48.697Z,69.70
2019-02-26T01:41:20.989Z,70.43
2019-02-26T01:43:52.601Z,69.20
2019-02-26T01:46:23.972Z,70.23
2019-02-26T01:48:57.432Z,74.60
2019-02-26T01:51:29.338Z,73.00
2019-02-26T01:54:01.459Z,76.67
2019-02-26T01:56:36.282Z,76.85
2019-02-26T01:59:07.255Z,76.10
2019-02-26T02:01:42.071Z,79.62
2019-02-26T02:04:12.880Z,73.45
2019-02-26T02:06:44.566Z,72.67
2019-02-26T02:09:17.684Z,76.20
2019-02-26T02:11:48.792Z,57.83
2019-02-26T02:14:21.020Z,67.05
2019-02-26T02:16:52.368Z,63.90
2019-02-26T02:19:25.725Z,75.57
2019-02-26T02:21:58.277Z,74.77
2019-02-26T02:24:31.810Z,35.17
2019-02-26T02:27:03.524Z,75.87
2019-02-26T02:29:34.817Z,80.17
2019-02-26T02:32:07.710Z,80.92
2019-02-26T02:34:42.923Z,76.42
2019-02-26T02:37:15.341Z,74.87
2019-02-26T02:39:47.210Z,74.53
2019-02-26T02:42:21.297Z,80.87
2019-02-26T02:44:52.818Z,83.83
2019-02-26T02:47:25.316Z,79.82
2019-02-26T02:49:57.941Z,78.40
2019-02-26T02:52:30.362Z,72.07
2019-02-26T02:55:04.567Z,79.33
2019-02-26T02:57:35.843Z,80.67
2019-02-26T03:00:08.901Z,82.37
2019-02-26T03:02:42.884Z,78.67
2019-02-26T03:05:13.614Z,80.90
2019-02-26T03:07:48.850Z,83.40
2019-02-26T03:10:18.281Z,76.07
2019-02-26T03:12:53.854Z,56.30
2019-02-26T03:15:24.589Z,76.30
2019-02-26T03:17:57.198Z,49.63
2019-02-26T03:20:30.826Z,72.78
2019-02-26T03:23:01.490Z,76.57
2019-02-26T03:25:32.788Z,82.57
2019-02-26T03:28:04.338Z,87.00
2019-02-26T03:30:40.603Z,88.65
2019-02-26T03:33:08.843Z,84.65
2019-02-26T03:35:40.532Z,87.82
2019-02-26T03:38:11.746Z,74.87
2019-02-26T03:40:43.319Z,85.33
2019-02-26T03:43:16.282Z,85.92
2019-02-26T03:45:48.231Z,83.22
2019-02-26T03:48:20.501Z,79.12
2019-02-26T03:50:51.908Z,83.27
2019-02-26T03:53:25.591Z,77.40
2019-02-26T03:56:01.926Z,81.50
2019-02-26T03:58:29.816Z,65.00
2019-02-26T04:01:04.583Z,79.87
2019-02-26T04:03:37.623Z,81.85
2019-02-26T04:06:09.976Z,70.35
2019-02-26T04:08:42.316Z,80.20
2019-02-26T04:11:16.538Z,84.90
2019-02-26T04:13:49.362Z,84.45
2019-02-26T04:16:20.109Z,89.17
2019-02-26T04:18:52.104Z,86.75
2019-02-26T04:21:23.548Z,83.22
2019-02-26T04:23:54.848Z,73.62
2019-02-26T04:27:04.138Z,87.55
2019-02-26T04:29:59.691Z,84.00
2019-02-26T04:33:20.671Z,85.40
2019-02-26T04:36:02.329Z,82.53
2019-02-26T04:39:01.631Z,80.70
2019-02-26T04:42:20.541Z,81.87
2019-02-26T04:45:30.310Z,84.52
2019-02-26T04:48:01.759Z,79.50
2019-02-26T04:50:35.511Z,80.03
2019-02-26T04:53:08.548Z,86.42
2019-02-26T04:55:41.532Z,82.35
2019-02-26T04:58:14.934Z,82.22
2019-02-26T05:00:45.326Z,80.30
2019-02-26T05:03:18.148Z,81.70
2019-02-26T05:05:53.737Z,82.82
2019-02-26T05:08:23.026Z,86.43
2019-02-26T05:10:57.250Z,83.23
2019-02-26T05:13:29.314Z,80.70
2019-02-26T05:16:00.721Z,82.67
2019-02-26T05:18:34.402Z,81.65
2019-02-26T05:21:08.273Z,79.20
2019-02-26T05:23:38.749Z,73.90
2019-02-26T05:26:11.655Z,80.70
2019-02-26T05:28:44.236Z,86.00
2019-02-26T05:31:17.525Z,85.87
2019-02-26T05:33:50.149Z,75.65
2019-02-26T05:36:22.391Z,80.83
2019-02-26T05:38:56.989Z,79.57
2019-02-26T05:41:27.874Z,84.90
2019-02-26T05:44:03.490Z,82.65
2019-02-26T05:46:32.017Z,83.70
2019-02-26T05:49:06.845Z,78.37
2019-02-26T05:51:38.202Z,79.87
2019-02-26T05:54:12.229Z,83.17
2019-02-26T05:56:46.138Z,87.65
2019-02-26T05:59:18.121Z,81.17
2019-02-26T06:01:52.733Z,82.45
2019-02-26T06:04:22.984Z,76.62
2019-02-26T06:06:56.405Z,87.55
2019-02-26T06:09:30.551Z,82.30
2019-02-26T06:12:01.727Z,82.13
2019-02-26T06:14:35.931Z,79.87
2019-02-26T06:17:07.357Z,84.50
2019-02-26T06:19:47.565Z,85.57
2019-02-26T06:22:21.321Z,80.60
2019-02-26T06:24:54.951Z,90.60
2019-02-26T06:27:27.298Z,84.23
2019-02-26T06:30:00.776Z,81.00
2019-02-26T06:32:34.537Z,86.28
2019-02-26T06:35:08.521Z,85.47
2019-02-26T06:37:40.391Z,88.17
2019-02-26T06:40:12.902Z,87.80
2019-02-26T06:42:44.260Z,85.72
2019-02-26T06:45:17.184Z,87.00
2019-02-26T06:47:51.333Z,78.23
2019-02-26T06:50:26.069Z,84.67
2019-02-26T06:52:57.497Z,89.37
2019-02-26T06:55:28.688Z,87.50
2019-02-26T06:58:29.970Z,67.58
2019-02-26T07:01:01.550Z,73.87
2019-02-26T07:03:32.886Z,82.27
2019-02-26T07:06:04.960Z,88.85
2019-02-26T07:08:36.281Z,86.17
2019-02-26T07:11:07.519Z,85.32
2019-02-26T07:13:41.045Z,77.50
2019-02-26T07:16:34.713Z,80.35
2019-02-26T07:19:06.521Z,72.90
2019-02-26T07:21:40.641Z,78.62
2019-02-26T07:24:12.138Z,70.70
2019-02-26T07:26:46.393Z,75.45
2019-02-26T07:29:17.665Z,73.45
2019-02-26T07:31:49.519Z,70.37
2019-02-26T07:34:22.778Z,58.38
2019-02-26T07:36:55.841Z,68.50
2019-02-26T07:39:27.823Z,61.42
2019-02-26T07:42:00.569Z,66.33
2019-02-26T07:44:32.383Z,78.40
2019-02-26T07:47:06.685Z,67.70
2019-02-26T07:49:38.627Z,68.12
2019-02-26T07:52:10.085Z,64.58
2019-02-26T07:54:42.783Z,72.20
2019-02-26T07:57:15.741Z,60.28
2019-02-26T07:59:50.199Z,66.97
2019-02-26T08:02:22.176Z,63.73
2019-02-26T08:04:53.802Z,63.45
2019-02-26T08:07:26.783Z,60.67
2019-02-26T08:09:59.806Z,62.43
2019-02-26T08:12:35.054Z,65.45
2019-02-26T08:15:08.710Z,60.33
2019-02-26T08:17:40.448Z,61.80
2019-02-26T08:20:14.881Z,62.48
2019-02-26T08:22:46.843Z,59.50
2019-02-26T08:25:18.486Z,32.98
2019-02-26T08:27:51.761Z,61.30
2019-02-26T08:30:25.891Z,60.80
2019-02-26T08:32:58.917Z,55.58
2019-02-26T08:35:34.255Z,58.15
2019-02-26T08:38:06.375Z,58.65
2019-02-26T08:40:37.793Z,56.23
2019-02-26T08:43:09.140Z,56.53
2019-02-26T08:45:40.527Z,55.70
2019-02-26T08:48:13.263Z,57.25
2019-02-26T08:50:46.317Z,55.15
2019-02-26T08:53:19.616Z,57.43
2019-02-26T08:55:56.336Z,54.38
2019-02-26T08:58:31.996Z,53.38
2019-02-26T09:01:06.659Z,60.45
2019-02-26T09:03:40.958Z,55.63
2019-02-26T09:06:13.599Z,54.75
2019-02-26T09:08:46.525Z,58.02
2019-02-26T09:11:19.705Z,52.20
2019-02-26T09:13:52.009Z,50.28
2019-02-26T09:16:27.650Z,50.48
2019-02-26T09:18:59.304Z,53.05
2019-02-26T09:21:31.337Z,53.15
2019-02-26T09:24:07.689Z,26.30
2019-02-26T09:26:40.734Z,54.38
2019-02-26T09:29:24.583Z,51.55
2019-02-26T09:31:55.996Z,51.00
2019-02-26T09:34:29.330Z,53.40
2019-02-26T09:37:05.749Z,51.08
2019-02-26T09:39:40.591Z,55.17
2019-02-26T09:42:13.544Z,46.00
2019-02-26T09:45:04.662Z,57.33
2019-02-26T09:47:40.349Z,53.55
2019-02-26T09:53:20.072Z,56.20
2019-02-26T09:55:52.400Z,60.75
2019-02-26T09:58:48.441Z,58.40
2019-02-26T10:01:51.274Z,59.83
2019-02-26T10:04:31.924Z,56.80
2019-02-26T10:07:08.855Z,60.98
2019-02-26T10:09:45.733Z,64.72
2019-02-26T10:12:15.810Z,63.10
2019-02-26T10:14:49.719Z,68.15
2019-02-26T10:17:21.529Z,63.28
2019-02-26T10:19:55.022Z,66.25
2019-02-26T10:22:28.952Z,55.92
2019-02-26T10:25:01.322Z,63.95
2019-02-26T10:27:38.278Z,60.95
2019-02-26T10:30:47.897Z,63.98
2019-02-26T10:33:21.123Z,64.55
2019-02-26T10:35:52.660Z,67.35
2019-02-26T10:38:28.885Z,66.57
2019-02-26T10:40:59.716Z,68.02
2019-02-26T10:43:31.857Z,70.32
2019-02-26T10:46:04.723Z,69.87
2019-02-26T10:48:36.245Z,69.40
2019-02-26T10:51:07.654Z,74.70
2019-02-26T10:53:39.313Z,77.53
2019-02-26T10:56:11.204Z,70.03
2019-02-26T10:58:42.568Z,71.62
2019-02-26T11:01:14.352Z,71.30
2019-02-26T11:03:49.290Z,71.67
2019-02-26T11:06:22.419Z,71.67
2019-02-26T11:08:55.721Z,72.85
2019-02-26T11:11:30.531Z,67.92
2019-02-26T11:14:05.259Z,75.92
2019-02-26T11:16:39.154Z,76.57
2019-02-26T11:19:12.345Z,69.20
2019-02-26T11:21:47.345Z,74.50
2019-02-26T11:24:19.352Z,73.07
2019-02-26T11:26:51.625Z,75.12
2019-02-26T11:29:23.060Z,70.62
2019-02-26T11:31:54.588Z,73.28
2019-02-26T11:34:28.579Z,74.72
2019-02-26T11:37:02.781Z,67.45
2019-02-26T11:39:37.059Z,75.10
2019-02-26T11:42:21.211Z,74.47
2019-02-26T11:44:52.383Z,50.10
2019-02-26T11:47:40.935Z,62.45
2019-02-26T11:50:32.832Z,69.67
2019-02-26T11:53:09.921Z,59.33
2019-02-26T11:55:43.431Z,36.98
2019-02-26T11:58:19.894Z,74.75
2019-02-26T12:01:14.676Z,75.78
2019-02-26T12:03:47.281Z,79.10
2019-02-26T12:06:20.771Z,71.30
2019-02-26T12:08:54.251Z,75.37
2019-02-26T12:11:26.032Z,73.80
2019-02-26T12:13:57.897Z,83.03
2019-02-26T12:16:30.570Z,70.97
2019-02-26T12:19:04.056Z,66.97
2019-02-26T12:21:37.041Z,71.00
2019-02-26T12:24:12.450Z,70.10
2019-02-26T12:26:44.686Z,66.82
2019-02-26T12:29:16.199Z,67.40
2019-02-26T12:31:53.834Z,68.00
2019-02-26T12:34:25.170Z,71.05
2019-02-26T12:37:02.130Z,64.85
2019-02-26T12:39:32.731Z,60.03
2019-02-26T12:42:08.054Z,57.62
2019-02-26T12:44:44.822Z,53.90
2019-02-26T12:47:17.831Z,60.50
2019-02-26T12:49:58.563Z,55.73
2019-02-26T12:52:34.256Z,46.60
2019-02-26T12:55:09.951Z,35.65
2019-02-26T12:57:43.305Z,44.27
2019-02-26T13:00:20.062Z,40.95
2019-02-26T13:02:52.299Z,51.80
2019-02-26T13:05:23.539Z,42.25
2019-02-26T13:07:57.018Z,42.85
2019-02-26T13:10:30.643Z,46.37
2019-02-26T13:13:06.552Z,40.90
2019-02-26T13:15:39.110Z,41.48
2019-02-26T13:18:11.324Z,41.60
2019-02-26T13:20:43.301Z,40.78
2019-02-26T13:23:19.576Z,36.60
2019-02-26T13:25:48.482Z,42.65
2019-02-26T13:28:29.690Z,46.23
2019-02-26T13:31:04.791Z,41.80
2019-02-26T13:33:38.538Z,41.80
2019-02-26T13:36:09.108Z,40.38
2019-02-26T13:39:00.184Z,40.58
2019-02-26T13:41:38.614Z,43.35
2019-02-26T13:44:07.047Z,39.03
2019-02-26T13:46:42.763Z,42.13
2019-02-26T13:49:14.230Z,43.20
2019-02-26T13:51:45.703Z,44.88
2019-02-26T13:54:19.165Z,49.23
2019-02-26T13:56:50.906Z,47.17
2019-02-26T13:59:23.455Z,46.40
2019-02-26T14:01:55.028Z,50.80
2019-02-26T14:04:27.602Z,47.40
2019-02-26T14:06:58.978Z,47.15
2019-02-26T14:09:30.513Z,50.17
2019-02-26T14:12:03.978Z,52.05
2019-02-26T14:14:36.041Z,53.02
2019-02-26T14:17:27.671Z,50.55
2019-02-26T14:20:03.698Z,54.80
2019-02-26T14:22:35.442Z,56.45
2019-02-26T14:25:09.653Z,51.30
2019-02-26T14:27:41.999Z,55.70
2019-02-26T14:30:14.508Z,50.23
2019-02-26T14:32:49.810Z,56.30
2019-02-26T14:35:21.521Z,58.20
2019-02-26T14:37:55.875Z,57.58
2019-02-26T14:40:27.907Z,56.50
2019-02-26T14:43:07.273Z,45.80
2019-02-26T14:46:00.827Z,58.98
2019-02-26T14:48:52.338Z,57.75
2019-02-26T14:51:45.911Z,54.35
2019-02-26T14:55:08.489Z,57.83
2019-02-26T14:57:42.621Z,41.70
2019-02-26T15:00:41.131Z,54.70
2019-02-26T15:03:35.948Z,58.25
2019-02-26T15:06:20.605Z,60.70
2019-02-26T15:09:12.236Z,65.72
2019-02-26T15:11:46.744Z,59.15
2019-02-26T15:14:20.637Z,59.15
2019-02-26T15:17:02.578Z,39.42
2019-02-26T15:19:49.430Z,60.98
2019-02-26T15:22:16.826Z,60.33
2019-02-26T15:28:23.871Z,55.12
2019-02-26T15:31:07.024Z,55.30
2019-02-26T15:33:39.532Z,41.95
2019-02-26T15:36:22.312Z,51.65
2019-02-26T15:38:57.818Z,54.75
2019-02-26T15:41:48.180Z,54.88
2019-02-26T15:44:35.854Z,56.30
2019-02-26T15:47:39.945Z,54.13
2019-02-26T15:51:14.368Z,53.58
2019-02-26T15:59:35.623Z,53.75
2019-02-26T16:02:07.526Z,55.48
2019-02-26T16:04:38.916Z,49.65
2019-02-26T16:07:11.535Z,52.85
2019-02-26T16:09:42.774Z,53.40
2019-02-26T16:12:14.151Z,55.85
2019-02-26T16:14:45.807Z,52.85
2019-02-26T16:17:17.291Z,54.73
2019-02-26T16:19:49.227Z,54.50
2019-02-26T16:22:23.251Z,52.78
2019-02-26T16:24:55.144Z,55.88
2019-02-26T16:27:28.281Z,56.60
2019-02-26T16:30:00.308Z,57.58
2019-02-26T16:32:32.132Z,56.35
2019-02-26T16:35:03.780Z,56.40
2019-02-26T16:37:35.532Z,61.28
2019-02-26T16:40:09.647Z,61.35
2019-02-26T16:42:44.334Z,59.60
2019-02-26T16:45:17.777Z,60.38
2019-02-26T16:47:49.512Z,59.93
2019-02-26T16:50:22.954Z,56.42
2019-02-26T16:52:54.784Z,59.42
2019-02-26T16:55:26.174Z,56.37
2019-02-26T16:58:02.357Z,56.65
2019-02-26T17:00:33.029Z,54.15
2019-02-26T17:03:07.416Z,50.73
2019-02-26T17:05:40.800Z,54.80
2019-02-26T17:08:12.589Z,54.80
2019-02-26T17:10:44.251Z,53.02
2019-02-26T17:13:16.359Z,50.50
2019-02-26T17:15:49.426Z,45.67
2019-02-26T17:18:21.939Z,45.80
2019-02-26T17:20:56.934Z,39.35
2019-02-26T17:23:29.224Z,48.58
2019-02-26T17:26:01.180Z,47.03
2019-02-26T17:28:33.563Z,54.95
2019-02-26T17:31:06.343Z,45.73
2019-02-26T17:33:38.771Z,46.63
2019-02-26T17:36:10.077Z,46.37
2019-02-26T17:38:41.251Z,45.80
2019-02-26T17:41:13.293Z,46.20
2019-02-26T17:43:44.527Z,46.60
2019-02-26T17:46:16.551Z,48.48
2019-02-26T17:48:48.925Z,47.27
2019-02-26T17:51:21.413Z,46.08
2019-02-26T17:53:53.023Z,50.12
2019-02-26T17:56:26.724Z,51.40
2019-02-26T17:58:58.781Z,52.33
2019-02-26T18:01:30.048Z,47.48
2019-02-26T18:04:02.327Z,48.38
2019-02-26T18:09:20.619Z,50.48
2019-02-26T18:11:52.409Z,46.70
2019-02-26T18:14:24.712Z,53.02
2019-02-26T18:16:58.785Z,50.83
2019-02-26T18:19:30.216Z,47.83
2019-02-26T18:22:01.634Z,48.28
2019-02-26T18:24:32.983Z,50.80
2019-02-26T18:27:04.413Z,53.95
2019-02-26T18:29:36.345Z,51.28
2019-02-26T18:32:10.819Z,51.58
2019-02-26T18:34:41.347Z,54.90
2019-02-26T18:37:13.040Z,50.60
2019-02-26T18:39:45.515Z,52.30
2019-02-26T18:42:17.136Z,48.78
2019-02-26T18:44:49.437Z,49.67
2019-02-26T18:47:23.968Z,53.42
2019-02-26T18:50:02.707Z,52.98
2019-02-26T18:52:41.209Z,51.35
2019-02-26T18:55:12.858Z,59.13
2019-02-26T18:57:44.603Z,51.65
2019-02-26T19:00:25.987Z,52.13
2019-02-26T19:03:01.605Z,54.80
2019-02-26T19:05:34.438Z,52.45
2019-02-26T19:08:06.627Z,51.37
2019-02-26T19:10:40.238Z,52.88
2019-02-26T19:13:13.835Z,53.83
2019-02-26T19:15:47.690Z,52.88
2019-02-26T19:18:23.351Z,53.50
2019-02-26T19:20:54.869Z,55.80
2019-02-26T19:23:26.280Z,54.30
2019-02-26T19:25:58.730Z,54.05
2019-02-26T19:28:30.464Z,53.38
2019-02-26T19:31:03.379Z,54.13
2019-02-26T19:33:34.856Z,53.98
2019-02-26T19:36:07.151Z,53.83
2019-02-26T19:38:41.498Z,51.58
2019-02-26T19:41:15.725Z,74.40
2019-02-26T19:43:48.309Z,61.33
2019-02-26T19:49:13.206Z,54.05
2019-02-26T19:51:45.800Z,52.00
2019-02-26T19:54:17.787Z,51.77
2019-02-26T19:56:49.879Z,51.92
2019-02-26T19:59:23.567Z,51.63
2019-02-26T20:01:59.665Z,50.58
2019-02-26T20:04:38.660Z,52.48
2019-02-26T20:07:53.235Z,46.98
2019-02-26T20:10:32.371Z,52.43
2019-02-26T20:28:21.616Z,48.65
2019-02-26T20:30:53.137Z,49.00
2019-02-26T20:33:24.579Z,47.53
2019-02-26T20:35:56.085Z,54.88
2019-02-26T20:38:35.019Z,50.10
2019-02-26T20:41:03.445Z,47.88
2019-02-26T20:43:36.813Z,51.83
2019-02-26T20:46:08.860Z,48.70
2019-02-26T20:48:40.055Z,48.05
2019-02-26T20:51:11.277Z,48.17
2019-02-26T20:53:42.562Z,55.48
2019-02-26T20:56:13.847Z,49.90
2019-02-26T20:58:45.464Z,46.40
2019-02-26T21:01:16.824Z,43.98
2019-02-26T21:03:48.434Z,45.50
2019-02-26T21:06:19.714Z,44.77
2019-02-26T21:08:51.014Z,43.85
2019-02-26T21:11:23.336Z,43.65
2019-02-26T21:13:55.102Z,42.30
2019-02-26T21:16:26.282Z,45.58
2019-02-26T21:18:57.499Z,46.48
2019-02-26T21:21:30.257Z,44.77
2019-02-26T21:24:01.478Z,44.27
2019-02-26T21:26:33.128Z,45.70
2019-02-26T21:29:06.457Z,43.28
2019-02-26T21:31:38.901Z,42.83
2019-02-26T21:34:10.338Z,42.78
2019-02-26T21:36:41.594Z,40.43
2019-02-26T21:39:12.830Z,44.10
2019-02-26T21:41:44.109Z,39.63
2019-02-26T21:44:15.733Z,39.35
2019-02-26T21:46:47.006Z,43.00
2019-02-26T21:49:18.364Z,39.58
2019-02-26T21:51:50.691Z,41.88
2019-02-26T21:54:24.739Z,43.83
2019-02-26T21:56:55.723Z,44.20
2019-02-26T21:59:26.844Z,43.45
2019-02-26T22:01:59.048Z,46.85
2019-02-26T22:04:31.961Z,42.93
2019-02-26T22:07:03.267Z,43.52
2019-02-26T22:09:34.890Z,45.17
2019-02-26T22:12:06.188Z,40.15
2019-02-26T22:14:37.545Z,39.20
2019-02-26T22:17:08.731Z,41.20
2019-02-26T22:19:40.076Z,43.28
2019-02-26T22:22:13.781Z,44.60
2019-02-26T22:24:46.185Z,48.00
2019-02-26T22:27:17.654Z,44.55
2019-02-26T22:29:48.928Z,45.78
2019-02-26T22:32:20.153Z,49.20
2019-02-26T22:34:53.589Z,44.53
2019-02-26T22:37:24.384Z,46.00
2019-02-26T22:39:55.833Z,45.25
2019-02-26T22:42:28.723Z,47.20
2019-02-26T22:45:01.409Z,45.00
2019-02-26T22:47:33.220Z,44.83
2019-02-26T22:50:04.471Z,47.67
2019-02-26T22:52:36.991Z,42.75
2019-02-26T22:55:09.265Z,47.25
2019-02-26T22:57:40.970Z,51.68
2019-02-26T23:00:50.728Z,50.28
2019-02-26T23:03:46.890Z,50.20
2019-02-26T23:06:18.346Z,50.65
2019-02-26T23:08:50.024Z,49.73
2019-02-26T23:11:21.789Z,50.25
2019-02-26T23:13:54.391Z,48.90
2019-02-26T23:16:26.950Z,51.48
2019-02-26T23:19:03.517Z,51.77
2019-02-26T23:21:36.478Z,52.25
2019-02-26T23:24:10.606Z,50.83
2019-02-26T23:26:43.323Z,50.65
2019-02-26T23:29:16.507Z,49.25
2019-02-26T23:31:47.855Z,49.80
2019-02-26T23:34:22.151Z,50.83
2019-02-26T23:36:52.703Z,54.25
2019-02-26T23:39:24.910Z,52.35
2019-02-26T23:41:58.058Z,54.00
2019-02-26T23:44:29.387Z,51.13
2019-02-26T23:48:34.193Z,56.37
2019-02-26T23:51:05.641Z,49.48
2019-02-26T23:53:36.890Z,53.63
2019-02-26T23:56:09.024Z,51.73
2019-02-26T23:58:48.700Z,49.98
